Time;durP1;ratioP1;P1;durP2;ratioP2;P2;SDS_P1;SDS_P2;PMS_P1;PMS_P2;Temp;Humidity;BMP_temperature;BMP_pressure;BME280_temperature;BME280_humidity;BME280_pressure;Samples;Min_cycle;Max_cycle;Signal;HPM_P1;HPM_P2
2022/05/01 00:01:02;;;;;;;8.88;7.50;;;14.20;99.90;;;;;;5079472;28;20028;-79
2022/05/01 00:03:31;;;;;;;9.90;7.65;;;14.20;99.90;;;;;;5059574;28;20020;-79
2022/05/01 00:06:06;;;;;;;9.75;7.80;;;14.10;99.90;;;;;;5085535;28;20027;-79
2022/05/01 00:08:34;;;;;;;11.40;7.80;;;14.20;99.90;;;;;;5074652;28;20025;-79
2022/05/01 00:11:01;;;;;;;10.07;8.68;;;14.10;99.90;;;;;;5077649;28;20029;-79
2022/05/01 00:13:28;;;;;;;13.10;8.40;;;14.00;99.90;;;;;;5072281;28;20035;-79
2022/05/01 00:15:54;;;;;;;10.88;8.02;;;14.00;99.90;;;;;;5078572;28;20527;-79
2022/05/01 00:18:20;;;;;;;11.73;8.85;;;14.00;99.90;;;;;;5078391;28;20494;-79
2022/05/01 00:20:46;;;;;;;10.00;8.35;;;14.00;99.90;;;;;;5085680;28;20059;-79
2022/05/01 00:23:13;;;;;;;17.70;8.85;;;13.90;99.90;;;;;;5080356;28;20029;-79
2022/05/01 00:25:42;;;;;;;9.93;8.23;;;13.90;99.90;;;;;;5065628;28;20524;-79
2022/05/01 00:28:12;;;;;;;12.65;8.43;;;13.90;99.90;;;;;;5067599;28;20511;-78
2022/05/01 00:30:38;;;;;;;12.43;9.48;;;13.80;99.90;;;;;;5085186;28;20031;-78
2022/05/01 00:38:35;;;;;;;11.77;9.43;;;13.70;99.90;;;;;;5084374;28;20067;-80
2022/05/01 00:41:02;;;;;;;12.90;9.63;;;13.70;99.90;;;;;;5085030;28;20031;-80
2022/05/01 00:43:27;;;;;;;11.63;9.50;;;13.70;99.90;;;;;;5072754;28;20071;-78
2022/05/01 00:45:54;;;;;;;12.75;10.00;;;13.70;99.90;;;;;;5066613;28;20444;-78
2022/05/01 00:48:19;;;;;;;12.82;9.18;;;13.60;99.90;;;;;;5082148;28;20017;-80
2022/05/01 00:50:45;;;;;;;13.60;9.52;;;13.50;99.90;;;;;;5068212;28;20029;-80
2022/05/01 00:53:11;;;;;;;13.00;10.07;;;13.60;99.90;;;;;;5071696;28;20037;-80
2022/05/01 00:55:38;;;;;;;13.05;10.23;;;13.50;99.90;;;;;;5070849;28;20036;-80
2022/05/01 00:58:06;;;;;;;11.65;9.95;;;13.50;99.90;;;;;;5067077;28;20051;-78
2022/05/01 01:00:34;;;;;;;13.27;9.95;;;13.50;99.90;;;;;;5063876;28;20062;-78
2022/05/01 01:03:00;;;;;;;12.60;9.93;;;13.50;99.90;;;;;;5084689;28;20024;-80
2022/05/01 01:05:26;;;;;;;13.23;10.07;;;13.40;99.90;;;;;;5079475;28;20032;-80
2022/05/01 01:07:52;;;;;;;13.15;9.90;;;13.40;99.90;;;;;;5071529;28;20024;-80
2022/05/01 01:10:19;;;;;;;14.02;10.27;;;13.40;99.90;;;;;;5065629;28;20024;-77
2022/05/01 01:12:54;;;;;;;13.98;11.10;;;13.40;99.90;;;;;;5061894;28;20020;-80
2022/05/01 01:15:25;;;;;;;13.45;10.10;;;13.40;99.90;;;;;;5062832;28;20028;-81
2022/05/01 01:17:54;;;;;;;16.92;11.30;;;13.30;99.90;;;;;;5064299;28;20025;-81
2022/05/01 01:20:22;;;;;;;14.48;10.15;;;13.30;99.90;;;;;;5078498;28;20031;-80
2022/05/01 01:22:50;;;;;;;15.52;10.45;;;13.40;99.90;;;;;;5076185;28;20474;-80
2022/05/01 01:25:23;;;;;;;14.82;11.30;;;13.30;99.90;;;;;;5069114;28;20055;-81
2022/05/01 01:27:51;;;;;;;15.05;11.30;;;13.20;99.90;;;;;;5078058;28;20362;-80
2022/05/01 01:33:02;;;;;;;15.25;11.57;;;13.20;99.90;;;;;;5075459;28;20040;-80
2022/05/01 01:35:29;;;;;;;19.65;11.80;;;13.20;99.90;;;;;;5083379;28;20107;-80
2022/05/01 01:37:55;;;;;;;14.20;10.65;;;13.20;99.90;;;;;;5081448;28;20020;-80
2022/05/01 01:40:32;;;;;;;14.55;10.88;;;13.20;99.90;;;;;;5083939;28;20050;-80
2022/05/01 01:42:59;;;;;;;13.18;9.77;;;13.20;99.90;;;;;;5073359;28;20020;-80
2022/05/01 01:45:28;;;;;;;14.55;10.48;;;13.10;99.90;;;;;;5074102;28;20509;-80
2022/05/01 01:47:55;;;;;;;12.60;9.57;;;13.20;99.90;;;;;;5087466;28;20059;-80
2022/05/01 01:50:21;;;;;;;15.25;10.63;;;13.10;99.90;;;;;;5079918;28;20116;-80
2022/05/01 01:52:47;;;;;;;13.82;10.95;;;13.00;99.90;;;;;;5071332;28;20120;-80
2022/05/01 01:55:15;;;;;;;14.60;11.00;;;13.00;99.90;;;;;;5070201;28;20362;-80
2022/05/01 01:57:42;;;;;;;15.75;11.40;;;13.00;99.90;;;;;;5069436;28;20051;-80
2022/05/01 02:00:09;;;;;;;14.07;10.02;;;13.00;99.90;;;;;;5074106;28;20013;-80
2022/05/01 02:02:35;;;;;;;13.07;10.27;;;12.90;99.90;;;;;;5078291;28;20031;-80
2022/05/01 02:05:00;;;;;;;15.63;10.43;;;13.00;99.90;;;;;;5079194;28;20393;-80
2022/05/01 02:07:29;;;;;;;15.45;11.48;;;12.90;99.90;;;;;;5069223;28;20032;-78
2022/05/01 02:09:55;;;;;;;14.50;10.88;;;12.90;99.90;;;;;;5063879;28;20055;-81
2022/05/01 02:12:20;;;;;;;15.35;11.00;;;12.90;99.90;;;;;;5068873;28;20143;-81
2022/05/01 02:14:46;;;;;;;14.38;10.48;;;12.90;99.90;;;;;;5071597;28;20013;-81
2022/05/01 02:17:12;;;;;;;16.65;11.60;;;12.80;99.90;;;;;;5078602;28;20040;-81
2022/05/01 02:19:38;;;;;;;15.50;11.05;;;12.80;99.90;;;;;;5068913;28;20455;-80
2022/05/01 02:22:04;;;;;;;15.15;10.95;;;12.80;99.90;;;;;;5063800;28;20021;-80
2022/05/01 02:24:30;;;;;;;18.20;12.13;;;12.80;99.90;;;;;;5067842;28;20020;-81
2022/05/01 02:26:56;;;;;;;15.57;11.85;;;12.70;99.90;;;;;;5086353;28;20027;-81
2022/05/01 02:29:22;;;;;;;15.38;11.57;;;12.70;99.90;;;;;;5087933;28;20065;-80
2022/05/01 02:31:53;;;;;;;16.27;11.85;;;12.70;99.90;;;;;;5084663;28;20448;-79
2022/05/01 02:34:21;;;;;;;17.00;12.30;;;12.70;99.90;;;;;;5079326;28;20028;-79
2022/05/01 02:36:46;;;;;;;14.13;10.82;;;12.70;99.90;;;;;;5078118;28;20562;-79
2022/05/01 02:39:13;;;;;;;14.98;11.30;;;12.70;99.90;;;;;;5065729;28;20021;-80
2022/05/01 02:41:39;;;;;;;16.88;12.32;;;12.70;99.90;;;;;;5084523;28;20025;-80
2022/05/01 02:44:05;;;;;;;16.08;12.18;;;12.70;99.90;;;;;;5077920;28;20023;-80
2022/05/01 02:46:32;;;;;;;16.45;12.60;;;12.70;99.90;;;;;;5074199;28;20020;-79
2022/05/01 02:48:58;;;;;;;15.05;11.95;;;12.60;99.90;;;;;;5073027;28;20489;-79
2022/05/01 02:51:24;;;;;;;15.88;11.77;;;12.60;99.90;;;;;;5074425;28;20028;-79
2022/05/01 02:53:50;;;;;;;17.08;12.07;;;12.60;99.90;;;;;;5079996;28;20047;-79
2022/05/01 02:56:16;;;;;;;17.02;12.77;;;12.50;99.90;;;;;;5080908;28;20049;-79
2022/05/01 02:58:42;;;;;;;18.70;13.13;;;12.50;99.90;;;;;;5075856;28;20442;-80
2022/05/01 03:01:08;;;;;;;22.55;14.05;;;12.40;99.90;;;;;;5062791;28;20056;-79
2022/05/01 03:03:35;;;;;;;18.75;13.05;;;12.40;99.90;;;;;;5078865;28;20028;-80
2022/05/01 03:06:00;;;;;;;17.77;13.57;;;12.50;99.90;;;;;;5084267;28;20150;-80
2022/05/01 03:08:27;;;;;;;18.30;13.23;;;12.50;99.90;;;;;;5060554;28;20132;-80
2022/05/01 03:10:52;;;;;;;18.33;13.25;;;12.40;99.90;;;;;;5078943;28;20019;-80
2022/05/01 03:13:18;;;;;;;17.60;12.73;;;12.40;99.90;;;;;;5057631;28;20463;-80
2022/05/01 03:15:44;;;;;;;19.10;12.88;;;12.50;99.90;;;;;;5072189;28;20016;-79
2022/05/01 03:23:39;;;;;;;16.08;11.23;;;12.50;99.90;;;;;;5079666;28;20048;-79
2022/05/01 03:26:05;;;;;;;16.48;11.60;;;12.50;99.90;;;;;;5081313;28;20021;-79
2022/05/01 03:28:31;;;;;;;16.58;12.52;;;12.60;99.90;;;;;;5075052;28;20039;-80
2022/05/01 03:30:57;;;;;;;15.55;10.65;;;12.60;99.90;;;;;;5077428;28;20031;-80
2022/05/01 03:33:25;;;;;;;16.13;11.55;;;12.60;99.90;;;;;;5080142;28;20059;-80
2022/05/01 03:35:51;;;;;;;16.17;11.98;;;12.60;99.90;;;;;;5088077;28;20020;-80
2022/05/01 03:38:17;;;;;;;15.52;11.20;;;12.60;99.90;;;;;;5080313;28;20027;-80
2022/05/01 03:40:47;;;;;;;17.92;12.38;;;12.50;99.90;;;;;;5080679;28;20020;-80
2022/05/01 03:43:14;;;;;;;16.02;11.93;;;12.60;99.90;;;;;;5082953;28;20020;-80
2022/05/01 03:45:40;;;;;;;16.05;11.55;;;12.60;99.90;;;;;;5090498;28;20027;-80
2022/05/01 03:48:06;;;;;;;14.38;10.48;;;12.50;99.90;;;;;;5079035;28;20024;-80
2022/05/01 03:50:32;;;;;;;14.25;10.30;;;12.50;99.90;;;;;;5088674;28;20032;-80
2022/05/01 03:52:57;;;;;;;14.73;10.60;;;12.40;99.90;;;;;;5087061;28;20103;-80
2022/05/01 03:55:23;;;;;;;17.42;11.48;;;12.30;99.90;;;;;;5073949;28;20520;-80
2022/05/01 03:57:49;;;;;;;15.43;11.43;;;12.20;99.90;;;;;;5076223;28;20121;-80
2022/05/01 04:00:18;;;;;;;16.13;11.02;;;12.20;99.90;;;;;;5080027;28;20032;-80
2022/05/01 04:02:45;;;;;;;16.20;10.82;;;12.20;99.90;;;;;;5088765;28;20031;-80
2022/05/01 04:05:14;;;;;;;14.93;10.50;;;12.30;99.90;;;;;;5075172;28;20064;-80
2022/05/01 04:07:41;;;;;;;13.30;10.55;;;12.20;99.90;;;;;;5076025;28;20024;-80
2022/05/01 04:10:08;;;;;;;14.90;11.02;;;12.20;99.90;;;;;;5067619;28;20031;-81
2022/05/01 04:12:41;;;;;;;16.17;11.13;;;12.20;99.90;;;;;;5078760;28;20497;-81
2022/05/01 04:15:07;;;;;;;14.98;10.95;;;12.20;99.90;;;;;;5076150;28;20490;-81
2022/05/01 04:17:39;;;;;;;15.10;11.70;;;12.10;99.90;;;;;;5088677;28;20009;-80
2022/05/01 04:20:15;;;;;;;15.52;11.32;;;12.10;99.90;;;;;;5074251;28;20028;-80
2022/05/01 04:22:43;;;;;;;16.63;10.77;;;12.20;99.90;;;;;;5077884;28;20039;-80
2022/05/01 04:25:20;;;;;;;15.18;11.23;;;12.20;99.90;;;;;;5079201;28;20123;-80
2022/05/01 04:27:47;;;;;;;17.25;11.95;;;12.10;99.90;;;;;;5060083;28;20108;-80
2022/05/01 04:30:15;;;;;;;18.63;12.23;;;12.10;99.90;;;;;;5066881;28;20025;-80
2022/05/01 04:32:55;;;;;;;16.42;11.60;;;12.10;99.90;;;;;;5075345;28;20064;-80
2022/05/01 04:35:33;;;;;;;19.90;13.85;;;12.10;99.90;;;;;;5080976;28;20035;-80
2022/05/01 04:38:04;;;;;;;20.92;13.73;;;12.00;99.90;;;;;;5072272;28;20039;-80
2022/05/01 04:40:34;;;;;;;20.58;13.60;;;12.00;99.90;;;;;;5077365;28;20110;-80
2022/05/01 04:43:27;;;;;;;19.92;12.43;;;12.10;99.90;;;;;;5079316;28;20024;-80
2022/05/01 04:45:54;;;;;;;21.08;13.63;;;12.00;99.90;;;;;;5062004;28;20040;-80
2022/05/01 04:48:21;;;;;;;19.25;13.18;;;12.00;99.90;;;;;;5062462;28;20033;-80
2022/05/01 04:50:48;;;;;;;22.05;13.90;;;12.00;99.90;;;;;;5070297;28;20032;-80
2022/05/01 04:53:16;;;;;;;18.70;12.40;;;11.90;99.90;;;;;;5076911;28;20032;-80
2022/05/01 04:55:44;;;;;;;24.02;14.30;;;11.90;99.90;;;;;;5077213;28;20028;-80
2022/05/01 04:58:11;;;;;;;21.67;13.70;;;12.00;99.90;;;;;;5065417;28;20035;-80
2022/05/01 05:00:37;;;;;;;18.60;13.18;;;12.00;99.90;;;;;;5080194;28;20017;-80
2022/05/01 05:03:04;;;;;;;21.58;13.55;;;12.10;99.90;;;;;;5083258;28;20070;-80
2022/05/01 05:05:31;;;;;;;20.17;13.82;;;12.10;99.90;;;;;;5070513;28;20083;-80
2022/05/01 05:09:53;;;;;;;21.58;13.98;;;12.20;99.90;;;;;;5068320;28;20056;-80
2022/05/01 05:10:46;;;;;;;20.73;13.23;;;12.20;99.90;;;;;;5078141;28;20578;-80
2022/05/01 05:13:17;;;;;;;21.20;12.60;;;12.10;99.90;;;;;;5077200;28;20035;-80
2022/05/01 05:15:43;;;;;;;19.75;13.35;;;12.10;99.90;;;;;;5074466;28;20048;-80
2022/05/01 05:18:08;;;;;;;19.35;12.82;;;12.00;99.90;;;;;;5063158;28;20420;-79
2022/05/01 05:20:34;;;;;;;20.20;13.38;;;12.10;99.90;;;;;;5089670;28;20035;-80
2022/05/01 05:23:00;;;;;;;20.92;13.82;;;12.10;99.90;;;;;;5078315;28;20024;-80
2022/05/01 05:25:25;;;;;;;21.08;13.60;;;12.10;99.90;;;;;;5081979;28;20039;-80
2022/05/01 05:27:51;;;;;;;23.05;14.10;;;12.10;99.90;;;;;;5062443;28;20513;-80
2022/05/01 05:30:17;;;;;;;22.08;13.98;;;12.10;99.90;;;;;;5066916;28;20489;-80
2022/05/01 05:32:42;;;;;;;25.80;13.25;;;12.20;99.90;;;;;;5078081;28;20467;-80
2022/05/01 05:35:08;;;;;;;25.98;15.20;;;12.30;99.90;;;;;;5079028;28;20024;-80
2022/05/01 05:37:34;;;;;;;22.05;14.93;;;12.10;99.90;;;;;;5064163;28;20103;-78
2022/05/01 05:40:00;;;;;;;23.33;15.38;;;12.10;99.90;;;;;;5076849;28;20096;-80
2022/05/01 05:42:26;;;;;;;27.70;16.55;;;12.10;99.90;;;;;;5079477;28;20120;-80
2022/05/01 05:44:52;;;;;;;23.40;16.05;;;12.20;99.90;;;;;;5063363;28;20028;-80
2022/05/01 05:47:18;;;;;;;29.10;18.60;;;12.20;99.90;;;;;;5074153;28;20491;-80
2022/05/01 05:49:44;;;;;;;30.75;19.25;;;12.10;99.90;;;;;;5077609;28;20516;-79
2022/05/01 05:52:09;;;;;;;32.58;20.15;;;12.00;99.90;;;;;;5065180;28;20059;-79
2022/05/01 05:54:35;;;;;;;28.20;18.83;;;12.10;99.90;;;;;;5059010;28;20031;-80
2022/05/01 05:57:01;;;;;;;29.35;18.88;;;12.10;99.90;;;;;;5073517;28;20041;-79
2022/05/01 05:59:27;;;;;;;31.67;19.60;;;12.10;99.90;;;;;;5085252;28;20068;-79
2022/05/01 06:01:53;;;;;;;29.85;19.45;;;12.00;99.90;;;;;;5068818;28;20020;-79
2022/05/01 06:04:18;;;;;;;31.98;19.50;;;12.10;99.90;;;;;;5065600;28;20032;-80
2022/05/01 06:06:44;;;;;;;30.20;19.13;;;12.00;99.90;;;;;;5058752;28;20488;-80
2022/05/01 06:09:10;;;;;;;30.15;20.08;;;12.00;99.90;;;;;;5052203;28;20036;-79
2022/05/01 06:11:36;;;;;;;31.65;20.60;;;12.00;99.90;;;;;;5062695;28;20493;-79
2022/05/01 06:14:02;;;;;;;29.85;20.10;;;12.00;99.90;;;;;;5084747;28;20047;-79
2022/05/01 06:16:28;;;;;;;33.25;19.83;;;12.10;99.90;;;;;;5064297;28;20026;-79
2022/05/01 06:18:54;;;;;;;33.15;19.92;;;12.10;99.90;;;;;;5082765;28;20405;-79
2022/05/01 06:21:20;;;;;;;29.83;19.42;;;12.10;99.90;;;;;;5059442;28;20029;-79
2022/05/01 06:23:48;;;;;;;28.98;18.95;;;12.30;99.90;;;;;;5089111;28;20036;-80
2022/05/01 06:26:14;;;;;;;33.20;19.92;;;12.30;99.90;;;;;;5080619;28;20074;-79
2022/05/01 06:28:40;;;;;;;33.58;21.02;;;12.10;99.90;;;;;;5066898;28;20029;-80
2022/05/01 06:31:06;;;;;;;34.47;21.15;;;12.10;99.90;;;;;;5075104;28;20034;-79
2022/05/01 06:33:35;;;;;;;35.15;20.92;;;12.10;99.90;;;;;;5064500;28;20036;-79
2022/05/01 06:36:01;;;;;;;34.28;21.08;;;12.20;99.90;;;;;;5080783;28;20066;-79
2022/05/01 06:38:28;;;;;;;32.33;19.60;;;12.20;99.90;;;;;;5088383;28;20089;-79
2022/05/01 06:40:54;;;;;;;31.50;20.13;;;12.20;99.90;;;;;;5067519;28;20043;-79
2022/05/01 06:43:20;;;;;;;27.85;18.80;;;12.30;99.90;;;;;;5071355;28;20063;-79
2022/05/01 06:45:47;;;;;;;30.02;19.30;;;12.60;99.90;;;;;;5072765;28;20046;-79
2022/05/01 06:48:14;;;;;;;26.58;17.48;;;12.60;99.90;;;;;;5075047;28;20033;-79
2022/05/01 06:50:39;;;;;;;26.13;17.23;;;12.80;99.90;;;;;;5079152;28;20043;-79
2022/05/01 06:53:06;;;;;;;31.10;18.92;;;12.70;99.90;;;;;;5073339;28;20051;-79
2022/05/01 06:55:32;;;;;;;29.50;19.52;;;12.60;99.90;;;;;;5070403;28;20040;-79
2022/05/01 06:57:58;;;;;;;29.17;19.15;;;12.70;99.90;;;;;;5078844;28;20044;-79
2022/05/01 07:00:24;;;;;;;30.42;19.27;;;12.60;99.90;;;;;;5083105;28;20387;-79
2022/05/01 07:02:52;;;;;;;30.23;18.65;;;12.60;99.90;;;;;;5057933;28;20029;-79
2022/05/01 07:05:19;;;;;;;30.40;20.17;;;12.50;99.90;;;;;;5070544;28;20078;-79
2022/05/01 07:07:45;;;;;;;33.40;22.65;;;12.60;99.90;;;;;;5068332;28;20518;-80
2022/05/01 07:10:12;;;;;;;28.30;19.38;;;12.60;99.90;;;;;;5067384;28;20048;-79
2022/05/01 07:12:38;;;;;;;35.38;21.63;;;12.70;99.90;;;;;;5068264;28;20104;-79
2022/05/01 07:15:05;;;;;;;30.85;20.63;;;12.60;99.90;;;;;;5080976;28;20558;-79
2022/05/01 07:17:32;;;;;;;33.67;21.40;;;12.60;99.90;;;;;;5088839;28;20020;-79
2022/05/01 07:19:59;;;;;;;33.17;22.35;;;12.60;99.90;;;;;;5069526;28;20024;-79
2022/05/01 07:22:25;;;;;;;32.22;20.67;;;12.60;99.90;;;;;;5075662;28;20054;-79
2022/05/01 07:24:50;;;;;;;30.58;20.33;;;12.50;99.90;;;;;;5060958;28;20029;-79
2022/05/01 07:27:16;;;;;;;30.17;21.25;;;12.60;99.90;;;;;;5073633;28;20798;-79
2022/05/01 07:29:42;;;;;;;30.80;19.90;;;12.80;99.90;;;;;;5057181;28;20025;-79
2022/05/01 07:32:09;;;;;;;30.55;20.13;;;12.80;99.90;;;;;;5066385;28;20081;-79
2022/05/01 07:34:34;;;;;;;28.08;18.70;;;13.00;99.90;;;;;;5061900;28;20031;-79
2022/05/01 07:37:00;;;;;;;27.85;17.95;;;13.00;99.90;;;;;;5065250;28;20024;-79
2022/05/01 07:39:26;;;;;;;27.83;17.35;;;13.10;99.90;;;;;;5061931;28;20575;-79
2022/05/01 07:41:52;;;;;;;28.15;17.17;;;13.20;99.90;;;;;;5054192;28;20028;-79
2022/05/01 07:44:17;;;;;;;25.20;15.98;;;13.40;99.90;;;;;;5059487;28;20028;-79
2022/05/01 07:46:43;;;;;;;26.10;16.38;;;13.50;99.90;;;;;;5064420;28;20082;-79
2022/05/01 07:49:10;;;;;;;24.35;15.70;;;13.60;99.90;;;;;;5064929;28;20497;-79
2022/05/01 07:51:36;;;;;;;26.17;16.52;;;13.70;99.90;;;;;;5088580;28;20031;-79
2022/05/01 07:54:04;;;;;;;24.73;17.08;;;13.70;99.90;;;;;;5080687;28;20025;-79
2022/05/01 07:56:31;;;;;;;23.13;15.02;;;13.70;99.90;;;;;;5063695;28;20079;-79
2022/05/01 07:58:57;;;;;;;25.80;14.40;;;13.80;99.90;;;;;;5065592;28;20130;-79
2022/05/01 08:01:23;;;;;;;23.17;14.32;;;13.90;99.90;;;;;;5060042;28;20060;-79
2022/05/01 08:06:33;;;;;;;27.27;16.48;;;13.70;99.90;;;;;;5059950;28;20111;-79
2022/05/01 08:08:59;;;;;;;23.58;16.15;;;13.90;99.90;;;;;;5066295;28;20032;-79
2022/05/01 08:11:24;;;;;;;26.75;18.17;;;13.70;99.90;;;;;;5067224;28;20045;-79
2022/05/01 08:13:50;;;;;;;26.48;17.65;;;13.60;99.90;;;;;;5063655;28;20032;-79
2022/05/01 08:16:19;;;;;;;25.75;16.77;;;13.50;99.90;;;;;;5068754;28;20564;-79
2022/05/01 08:21:31;;;;;;;26.17;18.00;;;13.70;99.90;;;;;;5073485;28;20046;-79
2022/05/01 08:23:57;;;;;;;26.15;17.10;;;13.70;99.90;;;;;;5079386;28;20083;-79
2022/05/01 08:26:23;;;;;;;26.60;17.55;;;13.60;99.90;;;;;;5083658;28;20029;-79
2022/05/01 08:28:54;;;;;;;25.65;16.55;;;13.70;99.90;;;;;;5079220;28;20026;-79
2022/05/01 08:31:21;;;;;;;25.73;16.67;;;14.10;99.90;;;;;;5066904;28;20118;-79
2022/05/01 08:33:47;;;;;;;29.25;18.38;;;14.00;99.90;;;;;;5055188;28;20032;-79
2022/05/01 08:36:13;;;;;;;27.90;18.95;;;13.80;99.90;;;;;;5072481;28;20025;-78
2022/05/01 08:38:39;;;;;;;28.95;18.48;;;13.90;99.90;;;;;;5063895;28;20402;-79
2022/05/01 08:41:07;;;;;;;27.33;18.90;;;14.40;99.90;;;;;;5073763;28;20110;-78
2022/05/01 08:43:34;;;;;;;23.83;16.83;;;14.80;99.90;;;;;;5075113;28;20020;-78
2022/05/01 08:46:34;;;;;;;26.92;16.90;;;15.00;99.90;;;;;;5061111;28;20403;-78
2022/05/01 08:49:06;;;;;;;31.55;17.05;;;14.90;99.90;;;;;;5076777;28;20020;-78
2022/05/01 08:51:42;;;;;;;24.75;15.25;;;14.90;99.90;;;;;;5059000;28;20074;-78
2022/05/01 08:54:12;;;;;;;24.77;16.63;;;15.00;99.90;;;;;;5073732;28;20033;-79
2022/05/01 08:56:43;;;;;;;26.38;16.05;;;15.20;99.90;;;;;;5084311;28;20048;-78
2022/05/01 08:59:11;;;;;;;21.35;14.32;;;15.60;99.90;;;;;;5066433;28;20083;-78
2022/05/01 09:01:41;;;;;;;22.17;16.02;;;15.80;99.90;;;;;;5064717;28;20024;-78
2022/05/01 09:04:09;;;;;;;26.95;17.23;;;15.50;99.90;;;;;;5067232;28;20124;-78
2022/05/01 09:06:36;;;;;;;26.77;16.85;;;15.60;99.90;;;;;;5066963;28;20092;-78
2022/05/01 09:09:10;;;;;;;26.02;17.45;;;15.70;99.90;;;;;;5064427;28;20057;-78
2022/05/01 09:14:22;;;;;;;28.50;18.15;;;16.10;99.90;;;;;;5081699;28;20165;-78
2022/05/01 09:17:21;;;;;;;26.05;17.42;;;16.30;99.90;;;;;;5071914;28;20017;-79
2022/05/01 09:20:08;;;;;;;27.48;18.75;;;16.70;99.90;;;;;;5070671;28;20491;-78
2022/05/01 09:22:51;;;;;;;29.80;17.95;;;17.00;99.90;;;;;;5070997;28;20024;-78
2022/05/01 09:25:22;;;;;;;27.17;17.98;;;16.80;99.90;;;;;;5070025;28;20054;-78
2022/05/01 09:27:49;;;;;;;;;;;17.30;99.90;;;;;;5067665;28;20426;-78
2022/05/01 09:30:16;;;;;;;23.70;16.20;;;17.70;99.90;;;;;;5074531;28;19904;-79
2022/05/01 09:32:43;;;;;;;23.35;15.45;;;17.90;99.90;;;;;;5079273;28;20020;-79
2022/05/01 09:35:32;;;;;;;21.98;14.63;;;18.30;99.90;;;;;;5078559;28;20039;-80
2022/05/01 09:38:28;;;;;;;24.77;16.98;;;17.80;99.90;;;;;;5065824;28;20021;-79
2022/05/01 09:40:58;;;;;;;24.42;16.15;;;17.90;99.90;;;;;;5068050;28;20117;-79
2022/05/01 09:43:41;;;;;;;23.60;16.23;;;18.00;99.90;;;;;;5066606;28;20686;-80
2022/05/01 09:46:21;;;;;;;23.70;16.58;;;18.50;99.90;;;;;;5055717;28;20075;-78
2022/05/01 09:49:00;;;;;;;23.40;16.45;;;18.50;99.90;;;;;;5067035;28;20116;-79
2022/05/01 09:51:31;;;;;;;27.10;17.17;;;18.10;99.90;;;;;;5076131;28;20063;-78
2022/05/01 09:53:58;;;;;;;22.23;16.55;;;17.80;99.90;;;;;;5081903;28;20025;-78
2022/05/01 09:56:24;;;;;;;22.88;16.17;;;18.40;99.90;;;;;;5062786;28;20387;-78
2022/05/01 09:58:58;;;;;;;21.38;16.05;;;18.50;99.90;;;;;;5070777;28;20027;-79
2022/05/01 10:01:24;;;;;;;26.02;16.92;;;18.30;99.90;;;;;;5061747;28;20043;-78
2022/05/01 10:03:52;;;;;;;22.38;16.15;;;18.20;99.90;;;;;;5056340;28;20498;-78
2022/05/01 10:06:19;;;;;;;24.42;16.42;;;19.00;99.90;;;;;;5068603;28;20060;-78
2022/05/01 10:08:45;;;;;;;18.98;14.48;;;18.60;99.90;;;;;;5064904;28;20052;-79
2022/05/01 10:11:14;;;;;;;20.30;14.55;;;18.80;99.90;;;;;;5074067;28;20086;-78
2022/05/01 10:13:40;;;;;;;21.38;14.05;;;18.60;99.90;;;;;;5071857;28;20482;-79
2022/05/01 10:16:09;;;;;;;20.48;14.25;;;19.10;99.90;;;;;;5071983;28;20062;-79
2022/05/01 10:18:38;;;;;;;20.73;14.90;;;19.20;99.90;;;;;;5058069;28;20107;-78
2022/05/01 10:21:05;;;;;;;23.85;16.08;;;18.30;99.90;;;;;;5057041;28;20012;-78
2022/05/01 10:23:31;;;;;;;22.73;15.90;;;18.70;99.90;;;;;;5075082;28;20029;-79
2022/05/01 10:26:20;;;;;;;22.17;16.20;;;18.50;99.90;;;;;;5074337;28;20544;-78
2022/05/01 10:29:10;;;;;;;21.92;15.77;;;19.10;99.90;;;;;;5068278;28;20061;-78
2022/05/01 10:32:22;;;;;;;22.38;16.00;;;19.00;99.90;;;;;;5072281;28;20035;-79
2022/05/01 10:35:13;;;;;;;22.17;15.70;;;18.80;99.90;;;;;;5046916;28;20091;-79
2022/05/01 10:38:09;;;;;;;19.90;14.93;;;18.90;99.90;;;;;;5070658;28;20031;-79
2022/05/01 10:40:55;;;;;;;20.92;15.57;;;19.70;99.90;;;;;;5065690;28;20119;-79
2022/05/01 10:43:27;;;;;;;24.02;15.20;;;19.40;99.90;;;;;;5065211;28;20516;-78
2022/05/01 10:46:01;;;;;;;22.27;15.48;;;18.90;99.90;;;;;;5059750;28;20051;-79
2022/05/01 10:48:35;;;;;;;23.00;15.50;;;18.80;99.90;;;;;;5070879;28;20023;-79
2022/05/01 10:51:38;;;;;;;18.67;13.32;;;19.40;99.90;;;;;;5070656;28;20047;-79
2022/05/01 10:54:15;;;;;;;20.63;14.25;;;19.90;98.90;;;;;;5075505;28;20041;-78
2022/05/01 10:56:49;;;;;;;27.10;15.65;;;19.40;99.90;;;;;;5075513;28;20040;-79
2022/05/01 10:59:38;;;;;;;22.38;14.57;;;19.40;99.90;;;;;;5068005;28;20487;-78
2022/05/01 11:02:05;;;;;;;24.58;15.20;;;19.90;99.90;;;;;;5060601;28;20025;-78
2022/05/01 11:04:41;;;;;;;19.77;14.32;;;19.90;99.90;;;;;;5065960;28;20032;-79
2022/05/01 11:07:13;;;;;;;16.42;12.20;;;20.20;98.60;;;;;;5066045;28;20043;-79
2022/05/01 11:09:42;;;;;;;16.63;11.20;;;20.50;98.00;;;;;;5066202;28;20110;-79
2022/05/01 11:12:09;;;;;;;18.02;12.40;;;20.30;98.70;;;;;;5070948;28;20522;-79
2022/05/01 11:14:38;;;;;;;20.75;13.82;;;20.40;98.50;;;;;;5056803;28;20090;-79
2022/05/01 11:17:04;;;;;;;16.30;12.48;;;20.30;98.40;;;;;;5070555;28;20021;-79
2022/05/01 11:19:43;;;;;;;18.80;13.05;;;20.50;97.90;;;;;;5063266;28;20025;-79
2022/05/01 11:22:11;;;;;;;16.17;12.90;;;20.60;98.00;;;;;;5059881;28;20024;-79
2022/05/01 11:24:43;;;;;;;16.15;12.07;;;20.40;98.60;;;;;;5064368;28;20024;-79
2022/05/01 11:27:16;;;;;;;13.48;10.27;;;20.50;97.10;;;;;;5054740;28;20017;-79
2022/05/01 11:30:06;;;;;;;13.68;10.43;;;20.50;96.00;;;;;;5066813;28;20758;-79
2022/05/01 11:32:50;;;;;;;16.45;9.90;;;20.20;95.90;;;;;;5085309;28;20557;-79
2022/05/01 11:35:16;;;;;;;13.05;9.00;;;20.50;97.20;;;;;;5064697;28;20119;-79
2022/05/01 11:38:00;;;;;;;13.13;9.50;;;20.80;96.30;;;;;;5069757;28;20020;-79
2022/05/01 11:40:28;;;;;;;12.25;8.90;;;20.80;96.20;;;;;;5069078;28;20036;-79
2022/05/01 11:43:15;;;;;;;9.65;7.88;;;20.90;96.00;;;;;;5070245;28;20033;-79
2022/05/01 11:45:41;;;;;;;12.40;8.70;;;21.00;96.10;;;;;;5075104;28;20048;-79
2022/05/01 11:48:14;;;;;;;12.95;8.40;;;21.10;94.30;;;;;;5076657;28;20017;-79
2022/05/01 11:50:42;;;;;;;12.30;9.35;;;21.00;95.60;;;;;;5086905;28;20084;-79
2022/05/01 11:53:25;;;;;;;14.65;10.13;;;21.00;95.30;;;;;;5062971;28;20060;-79
2022/05/01 12:04:27;;;;;;;10.02;7.75;;;21.10;93.90;;;;;;5064280;28;20043;-79
2022/05/01 12:07:05;;;;;;;9.57;8.30;;;21.00;92.40;;;;;;5067270;28;20021;-79
2022/05/01 12:09:35;;;;;;;11.88;8.18;;;20.90;94.70;;;;;;5069617;28;20020;-79
2022/05/01 12:12:01;;;;;;;10.45;7.00;;;20.90;94.40;;;;;;5077410;28;20021;-79
2022/05/01 12:14:28;;;;;;;13.13;8.07;;;20.90;93.60;;;;;;5067325;28;20510;-79
2022/05/01 12:16:54;;;;;;;7.85;6.20;;;20.90;92.30;;;;;;5072921;28;20051;-79
2022/05/01 12:19:20;;;;;;;9.70;7.22;;;20.80;93.00;;;;;;5067661;28;20059;-79
2022/05/01 12:21:46;;;;;;;7.72;6.07;;;20.60;92.90;;;;;;5072038;28;20044;-79
2022/05/01 12:24:12;;;;;;;8.05;5.88;;;20.90;93.40;;;;;;5070018;28;20510;-79
2022/05/01 12:26:47;;;;;;;11.07;7.45;;;20.70;93.60;;;;;;5078991;28;20047;-80
2022/05/01 12:29:13;;;;;;;11.07;7.45;;;20.90;94.10;;;;;;5075839;28;20317;-79
2022/05/01 12:32:01;;;;;;;9.63;6.38;;;21.00;93.30;;;;;;5077189;28;20095;-80
2022/05/01 12:34:29;;;;;;;10.60;6.68;;;21.10;93.20;;;;;;5077149;28;20028;-79
2022/05/01 12:36:59;;;;;;;9.82;6.95;;;20.90;93.40;;;;;;5054164;28;20027;-79
2022/05/01 12:39:26;;;;;;;9.23;6.88;;;21.00;92.70;;;;;;5065076;28;20030;-79
2022/05/01 12:45:04;;;;;;;8.05;6.28;;;20.80;91.60;;;;;;5061116;28;20517;-79
2022/05/01 12:47:31;;;;;;;8.05;5.75;;;20.70;91.60;;;;;;5064751;28;20044;-79
2022/05/01 12:49:57;;;;;;;7.25;5.30;;;20.70;91.80;;;;;;5066925;28;20021;-79
2022/05/01 12:52:32;;;;;;;6.72;5.75;;;20.70;92.00;;;;;;5066946;28;20524;-79
2022/05/01 12:55:06;;;;;;;8.52;5.43;;;20.90;91.80;;;;;;5066961;28;20020;-79
2022/05/01 12:57:34;;;;;;;8.18;5.63;;;21.00;92.70;;;;;;5059621;28;20036;-79
2022/05/01 13:00:00;;;;;;;7.95;5.55;;;21.10;92.10;;;;;;5061804;28;20056;-79
2022/05/01 13:02:25;;;;;;;6.30;4.90;;;20.80;91.80;;;;;;5073889;28;20051;-79
2022/05/01 13:05:03;;;;;;;5.80;4.88;;;20.70;92.00;;;;;;5073390;28;20089;-79
2022/05/01 13:07:34;;;;;;;8.18;5.28;;;20.80;92.00;;;;;;5063332;28;20055;-79
2022/05/01 13:10:01;;;;;;;8.10;4.85;;;20.80;91.50;;;;;;5060430;28;20081;-79
2022/05/01 13:12:32;;;;;;;7.25;5.35;;;20.80;91.70;;;;;;5059955;28;20443;-79
2022/05/01 13:15:02;;;;;;;8.38;6.05;;;21.00;91.70;;;;;;5066305;28;20040;-79